createdAt,value
2017-10-25T00:01:13.717Z,7.80
2017-10-25T00:03:41.965Z,9.80
2017-10-25T00:06:10.649Z,6.67
2017-10-25T00:08:38.891Z,8.83
2017-10-25T00:11:07.365Z,7.40
2017-10-25T00:13:35.653Z,8.37
2017-10-25T00:16:03.905Z,9.30
2017-10-25T00:18:32.151Z,9.30
2017-10-25T00:21:00.430Z,8.80
2017-10-25T00:23:28.681Z,8.17
2017-10-25T00:25:57.333Z,7.47
2017-10-25T00:28:25.577Z,6.57
2017-10-25T00:30:53.825Z,7.17
2017-10-25T00:33:22.481Z,7.77
2017-10-25T00:35:50.720Z,7.67
2017-10-25T00:38:19.044Z,7.00
2017-10-25T00:40:47.304Z,6.80
2017-10-25T00:43:15.649Z,6.60
2017-10-25T00:45:43.919Z,6.30
2017-10-25T00:48:12.157Z,5.53
2017-10-25T00:50:40.447Z,7.50
2017-10-25T00:53:09.083Z,6.27
2017-10-25T00:55:37.402Z,6.37
2017-10-25T00:58:05.697Z,8.17
2017-10-25T01:00:34.892Z,8.50
2017-10-25T01:03:03.512Z,5.87
2017-10-25T01:05:31.769Z,7.07
2017-10-25T01:08:00.058Z,6.50
2017-10-25T01:10:28.309Z,6.10
2017-10-25T01:12:56.554Z,5.50
2017-10-25T01:15:24.814Z,7.20
2017-10-25T01:17:53.051Z,5.40
2017-10-25T01:20:21.315Z,8.30
2017-10-25T01:22:49.592Z,7.33
2017-10-25T01:25:17.841Z,6.97
2017-10-25T01:27:46.492Z,9.53
2017-10-25T01:30:14.744Z,8.20
2017-10-25T01:32:43.013Z,9.70
2017-10-25T01:35:11.266Z,8.70
2017-10-25T01:37:39.536Z,9.83
2017-10-25T01:40:08.179Z,8.17
2017-10-25T01:42:36.428Z,8.20
2017-10-25T01:45:04.712Z,9.37
2017-10-25T01:47:32.961Z,8.17
2017-10-25T01:50:01.209Z,7.13
2017-10-25T01:52:29.481Z,10.60
2017-10-25T01:54:57.744Z,9.67
2017-10-25T01:57:25.997Z,7.93
2017-10-25T01:59:54.286Z,10.30
2017-10-25T02:02:22.553Z,11.40
2017-10-25T02:04:50.804Z,10.43
2017-10-25T02:07:19.801Z,8.17
2017-10-25T02:09:48.121Z,7.80
2017-10-25T02:12:16.592Z,10.10
2017-10-25T02:14:44.836Z,8.70
2017-10-25T02:17:13.124Z,6.50
2017-10-25T02:19:41.373Z,6.93
2017-10-25T02:22:09.638Z,10.07
2017-10-25T02:24:39.708Z,9.63
2017-10-25T02:27:07.959Z,10.77
2017-10-25T02:29:36.235Z,10.80
2017-10-25T02:32:04.479Z,10.90
2017-10-25T02:34:32.721Z,11.60
2017-10-25T02:37:01.092Z,9.60
2017-10-25T02:39:29.466Z,7.60
2017-10-25T02:41:57.707Z,10.97
2017-10-25T02:44:25.982Z,10.33
2017-10-25T02:46:54.230Z,11.33
2017-10-25T02:49:22.466Z,10.53
2017-10-25T02:51:50.733Z,11.70
2017-10-25T02:54:18.982Z,9.93
2017-10-25T02:56:47.285Z,12.00
2017-10-25T02:59:15.521Z,10.87
2017-10-25T03:01:43.764Z,9.80
2017-10-25T03:04:12.090Z,8.40
2017-10-25T03:06:40.364Z,9.07
2017-10-25T03:09:08.629Z,11.30
2017-10-25T03:11:37.024Z,10.93
2017-10-25T03:14:05.282Z,8.93
2017-10-25T03:16:33.545Z,9.77
2017-10-25T03:19:01.857Z,8.73
2017-10-25T03:21:30.095Z,7.17
2017-10-25T03:23:58.353Z,10.80
2017-10-25T03:26:26.652Z,8.70
2017-10-25T03:28:54.908Z,8.50
2017-10-25T03:31:23.172Z,10.03
2017-10-25T03:33:51.427Z,10.40
2017-10-25T03:36:19.904Z,8.30
2017-10-25T03:38:48.222Z,8.57
2017-10-25T03:41:16.488Z,9.50
2017-10-25T03:43:46.574Z,9.10
2017-10-25T03:46:14.807Z,8.03
2017-10-25T03:48:44.233Z,9.67
2017-10-25T03:51:12.561Z,8.27
2017-10-25T03:53:41.386Z,9.37
2017-10-25T03:56:09.690Z,10.33
2017-10-25T03:58:38.124Z,9.30
2017-10-25T04:01:06.374Z,11.53
2017-10-25T04:03:35.073Z,9.80
2017-10-25T04:06:03.322Z,8.40
2017-10-25T04:08:31.577Z,9.70
2017-10-25T04:10:59.884Z,11.33
2017-10-25T04:13:28.160Z,10.87
2017-10-25T04:15:56.415Z,11.60
2017-10-25T04:18:24.678Z,10.90
2017-10-25T04:20:52.940Z,8.00
2017-10-25T04:23:21.444Z,9.50
2017-10-25T04:25:49.757Z,12.10
2017-10-25T04:28:18.012Z,8.57
2017-10-25T04:30:46.290Z,9.17
2017-10-25T04:33:14.542Z,10.77
2017-10-25T04:35:42.812Z,11.33
2017-10-25T04:38:11.492Z,11.20
2017-10-25T04:40:39.745Z,8.70
2017-10-25T04:43:08.416Z,9.17
2017-10-25T04:45:36.689Z,11.80
2017-10-25T04:48:04.949Z,9.30
2017-10-25T04:50:33.226Z,9.30
2017-10-25T04:53:02.511Z,10.30
2017-10-25T04:55:30.991Z,8.97
2017-10-25T04:57:59.249Z,11.60
2017-10-25T05:00:27.497Z,9.07
2017-10-25T05:02:55.756Z,9.83
2017-10-25T05:05:24.011Z,11.67
2017-10-25T05:07:52.697Z,8.73
2017-10-25T05:10:21.007Z,11.60
2017-10-25T05:12:49.292Z,9.00
2017-10-25T05:15:17.596Z,9.80
2017-10-25T05:17:45.878Z,9.20
2017-10-25T05:20:14.375Z,11.27
2017-10-25T05:22:42.628Z,8.97
2017-10-25T05:25:10.900Z,10.00
2017-10-25T05:27:39.170Z,8.90
2017-10-25T05:30:07.465Z,11.73
2017-10-25T05:32:35.729Z,9.60
2017-10-25T05:35:03.984Z,9.27
2017-10-25T05:37:32.250Z,10.57
2017-10-25T05:40:00.557Z,8.70
2017-10-25T05:42:28.859Z,9.50
2017-10-25T05:44:57.161Z,10.50
2017-10-25T05:47:25.426Z,12.03
2017-10-25T05:49:53.702Z,10.47
2017-10-25T05:52:22.032Z,11.77
2017-10-25T05:54:50.323Z,8.33
2017-10-25T05:57:18.596Z,10.83
2017-10-25T05:59:46.848Z,9.97
2017-10-25T06:02:15.376Z,9.77
2017-10-25T06:04:43.630Z,9.37
2017-10-25T06:07:11.882Z,8.70
2017-10-25T06:09:40.568Z,10.50
2017-10-25T06:12:08.869Z,11.43
2017-10-25T06:14:37.186Z,10.47
2017-10-25T06:17:05.443Z,10.87
2017-10-25T06:19:33.708Z,9.90
2017-10-25T06:22:01.991Z,9.70
2017-10-25T06:24:30.279Z,10.87
2017-10-25T06:26:58.579Z,8.83
2017-10-25T06:29:26.927Z,11.73
2017-10-25T06:31:55.181Z,11.00
2017-10-25T06:34:23.429Z,10.87
2017-10-25T06:36:51.706Z,10.97
2017-10-25T06:39:19.978Z,8.80
2017-10-25T06:41:48.524Z,11.00
2017-10-25T06:44:16.767Z,12.60
2017-10-25T06:46:45.065Z,11.40
2017-10-25T06:49:13.332Z,8.70
2017-10-25T06:51:41.587Z,11.77
2017-10-25T06:54:09.880Z,12.07
2017-10-25T06:56:38.152Z,9.20
2017-10-25T06:59:06.435Z,11.10
2017-10-25T07:01:35.478Z,10.53
2017-10-25T07:04:03.802Z,10.07
2017-10-25T07:06:32.158Z,9.00
2017-10-25T07:09:00.481Z,10.10
2017-10-25T07:11:28.797Z,11.27
2017-10-25T07:13:57.118Z,9.30
2017-10-25T07:16:25.420Z,8.60
2017-10-25T07:18:53.766Z,12.17
2017-10-25T07:21:22.131Z,11.17
2017-10-25T07:23:50.419Z,11.00
2017-10-25T07:26:19.609Z,8.30
2017-10-25T07:28:48.332Z,9.00
2017-10-25T07:31:16.873Z,9.10
2017-10-25T07:33:45.168Z,8.90
2017-10-25T07:36:13.792Z,9.93
2017-10-25T07:38:42.363Z,10.30
2017-10-25T07:41:10.838Z,9.27
2017-10-25T07:43:39.234Z,11.00
2017-10-25T07:46:07.674Z,8.43
2017-10-25T07:48:35.960Z,9.90
2017-10-25T07:51:04.677Z,8.93
2017-10-25T07:53:33.015Z,10.10
2017-10-25T07:56:01.318Z,10.33
2017-10-25T07:58:29.583Z,10.07
2017-10-25T08:00:57.849Z,10.80
2017-10-25T08:03:26.172Z,10.80
2017-10-25T08:05:54.807Z,10.67
2017-10-25T08:08:23.054Z,11.30
2017-10-25T08:10:51.316Z,10.60
2017-10-25T08:13:19.571Z,9.80
2017-10-25T08:15:48.210Z,10.20
2017-10-25T08:18:16.472Z,10.37
2017-10-25T08:20:44.884Z,10.97
2017-10-25T08:23:13.583Z,10.70
2017-10-25T08:25:41.864Z,9.67
2017-10-25T08:28:10.588Z,9.30
2017-10-25T08:30:38.827Z,7.80
2017-10-25T08:33:07.069Z,9.10
2017-10-25T08:35:35.346Z,9.80
2017-10-25T08:38:03.623Z,8.50
2017-10-25T08:40:31.903Z,9.63
2017-10-25T08:43:00.226Z,9.40
2017-10-25T08:45:28.932Z,9.67
2017-10-25T08:47:57.213Z,8.67
2017-10-25T08:50:25.502Z,8.90
2017-10-25T08:52:53.744Z,8.73
2017-10-25T08:55:22.135Z,9.80
2017-10-25T08:57:50.392Z,7.90
2017-10-25T09:00:19.038Z,8.37
2017-10-25T09:02:47.288Z,8.23
2017-10-25T09:05:15.529Z,8.73
2017-10-25T09:07:44.279Z,8.07
2017-10-25T09:10:12.521Z,7.07
2017-10-25T09:12:41.588Z,8.07
2017-10-25T09:15:09.924Z,8.40
2017-10-25T09:17:38.176Z,7.90
2017-10-25T09:20:06.490Z,8.50
2017-10-25T09:22:34.758Z,8.20
2017-10-25T09:25:02.996Z,8.27
2017-10-25T09:27:31.355Z,7.60
2017-10-25T09:29:59.615Z,7.90
2017-10-25T09:32:27.865Z,8.37
2017-10-25T09:34:56.114Z,7.90
2017-10-25T09:37:24.368Z,7.20
2017-10-25T09:39:52.641Z,7.93
2017-10-25T09:42:20.886Z,6.03
2017-10-25T09:44:49.385Z,6.70
2017-10-25T09:47:18.065Z,7.63
2017-10-25T09:49:46.375Z,6.93
2017-10-25T09:52:14.677Z,7.40
2017-10-25T09:54:43.404Z,7.13
2017-10-25T09:57:11.648Z,7.23
2017-10-25T09:59:39.929Z,7.30
2017-10-25T10:02:09.287Z,6.53
2017-10-25T10:04:37.534Z,5.23
2017-10-25T10:07:06.186Z,6.03
2017-10-25T10:09:34.435Z,6.30
2017-10-25T10:12:02.682Z,6.10
2017-10-25T10:14:31.002Z,5.53
2017-10-25T10:16:59.234Z,6.00
2017-10-25T10:19:27.468Z,6.50
2017-10-25T10:21:55.767Z,5.30
2017-10-25T10:24:24.320Z,5.83
2017-10-25T10:26:52.609Z,5.77
2017-10-25T10:29:20.869Z,5.70
2017-10-25T10:31:49.128Z,6.13
2017-10-25T10:34:17.359Z,5.80
2017-10-25T10:36:46.011Z,6.17
2017-10-25T10:39:14.315Z,7.10
2017-10-25T10:41:42.579Z,5.90
2017-10-25T10:44:10.828Z,6.00
2017-10-25T10:46:39.081Z,5.73
2017-10-25T10:49:07.360Z,6.43
2017-10-25T10:51:35.798Z,4.53
2017-10-25T10:54:04.272Z,5.50
2017-10-25T10:56:36.339Z,5.03
2017-10-25T10:59:16.908Z,5.90
2017-10-25T11:01:59.099Z,4.83
2017-10-25T11:04:40.334Z,4.60
2017-10-25T11:07:22.646Z,4.47
2017-10-25T11:10:03.851Z,4.10
2017-10-25T11:12:43.513Z,4.20
2017-10-25T11:15:13.782Z,4.23
2017-10-25T11:17:42.047Z,3.80
2017-10-25T11:20:10.337Z,3.47
2017-10-25T11:22:38.582Z,3.37
2017-10-25T11:25:06.845Z,3.70
2017-10-25T11:27:35.498Z,3.30
2017-10-25T11:30:03.740Z,3.80
2017-10-25T11:32:32.015Z,3.10
2017-10-25T11:35:01.146Z,3.27
2017-10-25T11:37:29.482Z,2.97
2017-10-25T11:39:57.742Z,3.20
2017-10-25T11:42:26.021Z,3.53
2017-10-25T11:44:54.281Z,3.03
2017-10-25T11:47:22.968Z,2.80
2017-10-25T11:49:51.650Z,3.00
2017-10-25T11:52:19.942Z,2.70
2017-10-25T11:54:48.249Z,3.40
2017-10-25T11:57:16.519Z,3.33
2017-10-25T11:59:44.804Z,2.90
2017-10-25T12:02:13.462Z,3.10
2017-10-25T12:04:41.764Z,2.83
2017-10-25T12:07:10.007Z,3.20
2017-10-25T12:09:38.275Z,3.13
2017-10-25T12:12:07.402Z,2.90
2017-10-25T12:14:35.640Z,2.60
2017-10-25T12:17:03.923Z,3.27
2017-10-25T12:19:32.579Z,2.90
2017-10-25T12:22:00.815Z,2.90
2017-10-25T12:24:29.117Z,2.87
2017-10-25T12:26:57.692Z,2.83
2017-10-25T12:29:26.182Z,2.80
2017-10-25T12:31:54.429Z,2.40
2017-10-25T12:34:22.722Z,2.77
2017-10-25T12:36:50.984Z,2.37
2017-10-25T12:39:19.241Z,2.67
2017-10-25T12:41:47.556Z,2.50
2017-10-25T12:44:15.806Z,2.60
2017-10-25T12:46:44.110Z,2.47
2017-10-25T12:49:12.342Z,2.37
2017-10-25T12:51:40.639Z,2.30
2017-10-25T12:54:08.950Z,2.87
2017-10-25T12:56:37.250Z,2.90
2017-10-25T12:59:05.895Z,2.17
2017-10-25T13:01:34.158Z,2.47
2017-10-25T13:04:02.395Z,2.80
2017-10-25T13:06:30.639Z,3.07
2017-10-25T13:08:58.949Z,2.60
2017-10-25T13:11:27.556Z,3.37
2017-10-25T13:14:03.887Z,3.37
2017-10-25T13:16:38.116Z,2.60
2017-10-25T13:19:06.357Z,2.70
2017-10-25T13:21:34.837Z,3.10
2017-10-25T13:24:03.090Z,3.30
2017-10-25T13:26:31.563Z,4.20
2017-10-25T13:28:59.815Z,3.70
2017-10-25T13:31:28.057Z,3.10
2017-10-25T13:33:56.321Z,3.33
2017-10-25T13:36:24.569Z,2.90
2017-10-25T13:38:52.862Z,2.93
2017-10-25T13:41:21.154Z,3.20
2017-10-25T13:43:49.445Z,3.60
2017-10-25T13:46:17.684Z,3.20
2017-10-25T13:48:45.948Z,3.30
2017-10-25T13:51:14.176Z,3.47
2017-10-25T13:53:42.414Z,3.03
2017-10-25T13:56:10.668Z,3.50
2017-10-25T13:58:38.917Z,3.20
2017-10-25T14:01:07.221Z,3.70
2017-10-25T14:03:35.517Z,3.17
2017-10-25T14:06:03.754Z,3.53
2017-10-25T14:08:32.225Z,3.60
2017-10-25T14:11:00.467Z,4.10
2017-10-25T14:13:28.729Z,4.10
2017-10-25T14:15:56.973Z,3.73
2017-10-25T14:18:25.228Z,4.00
2017-10-25T14:23:28.456Z,4.30
2017-10-25T14:25:56.725Z,4.10
2017-10-25T14:28:36.925Z,4.97
2017-10-25T14:31:05.211Z,3.97
2017-10-25T14:33:33.488Z,4.80
2017-10-25T14:36:02.151Z,4.53
2017-10-25T14:38:30.820Z,4.80
2017-10-25T14:40:59.067Z,4.80
2017-10-25T14:43:27.313Z,4.23
2017-10-25T14:45:55.618Z,4.50
2017-10-25T14:48:24.294Z,4.30
2017-10-25T14:50:52.563Z,4.80
2017-10-25T14:53:20.924Z,4.47
2017-10-25T14:55:49.178Z,4.93
2017-10-25T14:58:17.454Z,5.37
2017-10-25T15:00:45.955Z,4.43
2017-10-25T15:03:14.230Z,4.20
2017-10-25T15:05:42.493Z,4.70
2017-10-25T15:08:10.756Z,4.80
2017-10-25T15:10:39.002Z,4.27
2017-10-25T15:13:07.279Z,4.40
2017-10-25T15:15:35.732Z,4.40
2017-10-25T15:18:04.366Z,4.70
2017-10-25T15:20:32.643Z,5.07
2017-10-25T15:23:00.904Z,4.30
2017-10-25T15:25:29.167Z,4.93
2017-10-25T15:27:57.440Z,4.80
2017-10-25T15:30:25.952Z,4.80
2017-10-25T15:32:54.214Z,5.87
2017-10-25T15:35:22.506Z,4.60
2017-10-25T15:37:50.761Z,4.33
2017-10-25T15:40:19.027Z,4.80
2017-10-25T15:42:47.300Z,4.60
2017-10-25T15:45:15.668Z,4.23
2017-10-25T15:47:44.572Z,4.87
2017-10-25T15:50:12.816Z,5.17
2017-10-25T15:52:41.071Z,4.53
2017-10-25T15:55:09.350Z,4.13
2017-10-25T15:57:37.592Z,5.03
2017-10-25T16:00:05.857Z,4.80
2017-10-25T16:02:34.125Z,5.10
2017-10-25T16:05:02.379Z,4.47
2017-10-25T16:07:30.777Z,4.30
2017-10-25T16:09:59.020Z,4.70
2017-10-25T16:12:27.281Z,4.90
2017-10-25T16:14:55.579Z,5.43
2017-10-25T16:17:25.420Z,5.07
2017-10-25T16:19:53.737Z,5.37
2017-10-25T16:22:22.070Z,5.53
2017-10-25T16:24:50.737Z,5.23
2017-10-25T16:27:19.123Z,6.00
2017-10-25T16:29:47.474Z,6.17
2017-10-25T16:32:15.725Z,6.77
2017-10-25T16:34:44.011Z,6.67
2017-10-25T16:37:12.323Z,7.07
2017-10-25T16:39:40.614Z,6.73
2017-10-25T16:42:08.927Z,6.23
2017-10-25T16:44:37.270Z,6.43
2017-10-25T16:47:05.661Z,6.20
2017-10-25T16:49:33.965Z,6.20
2017-10-25T16:52:02.303Z,6.07
2017-10-25T16:54:30.588Z,6.40
2017-10-25T16:56:58.892Z,5.87
2017-10-25T16:59:27.154Z,5.93
2017-10-25T17:01:55.447Z,5.50
2017-10-25T17:04:23.784Z,5.77
2017-10-25T17:06:52.090Z,5.60
2017-10-25T17:09:20.383Z,5.87
2017-10-25T17:11:49.536Z,5.77
2017-10-25T17:14:18.083Z,6.00
2017-10-25T17:16:47.213Z,6.00
2017-10-25T17:19:15.550Z,5.67
2017-10-25T17:21:44.233Z,5.83
2017-10-25T17:24:12.514Z,5.53
2017-10-25T17:26:40.847Z,6.80
2017-10-25T17:29:09.257Z,5.20
2017-10-25T17:31:38.225Z,5.27
2017-10-25T17:34:08.871Z,5.80
2017-10-25T17:36:37.157Z,5.93
2017-10-25T17:39:05.649Z,6.50
2017-10-25T17:41:34.146Z,5.27
2017-10-25T17:44:03.325Z,5.43
2017-10-25T17:46:31.576Z,5.13
2017-10-25T17:48:59.856Z,5.83
2017-10-25T17:51:28.149Z,5.80
2017-10-25T17:53:56.457Z,5.40
2017-10-25T17:56:24.716Z,5.60
2017-10-25T17:58:53.126Z,6.37
2017-10-25T18:01:21.643Z,8.20
2017-10-25T18:03:50.387Z,6.10
2017-10-25T18:06:19.045Z,6.20
2017-10-25T18:08:47.327Z,6.27
2017-10-25T18:11:15.569Z,6.67
2017-10-25T18:13:43.865Z,6.57
2017-10-25T18:16:12.431Z,5.60
2017-10-25T18:18:41.614Z,5.27
2017-10-25T18:21:09.964Z,6.20
2017-10-25T18:23:38.985Z,5.67
2017-10-25T18:26:07.503Z,5.40
2017-10-25T18:28:36.801Z,5.77
2017-10-25T18:31:05.062Z,5.43
2017-10-25T18:33:33.329Z,5.50
2017-10-25T18:36:02.170Z,6.30
2017-10-25T18:38:30.428Z,5.37
2017-10-25T18:40:58.773Z,6.03
2017-10-25T18:43:27.050Z,6.50
2017-10-25T18:45:55.327Z,5.47
2017-10-25T18:48:23.641Z,5.73
2017-10-25T18:50:52.181Z,5.40
2017-10-25T18:53:20.631Z,5.23
2017-10-25T18:55:49.291Z,6.33
2017-10-25T18:58:17.571Z,5.63
2017-10-25T19:00:46.337Z,6.23
2017-10-25T19:03:14.641Z,5.87
2017-10-25T19:05:43.422Z,6.30
2017-10-25T19:08:12.235Z,5.60
2017-10-25T19:10:41.726Z,6.70
2017-10-25T19:13:10.142Z,6.43
2017-10-25T19:15:39.261Z,6.60
2017-10-25T19:18:07.981Z,5.90
2017-10-25T19:20:36.714Z,6.60
2017-10-25T19:23:05.016Z,5.50
2017-10-25T19:25:33.317Z,5.50
2017-10-25T19:28:01.628Z,6.43
2017-10-25T19:30:29.939Z,5.90
2017-10-25T19:32:58.192Z,6.07
2017-10-25T19:35:26.481Z,6.43
2017-10-25T19:37:54.757Z,6.60
2017-10-25T19:40:23.037Z,6.73
2017-10-25T19:42:51.343Z,8.73
2017-10-25T19:45:20.109Z,9.57
2017-10-25T19:47:48.405Z,6.30
2017-10-25T19:50:17.148Z,6.60
2017-10-25T19:52:45.440Z,6.53
2017-10-25T19:55:13.739Z,6.73
2017-10-25T19:57:42.098Z,6.33
2017-10-25T20:00:10.637Z,6.20
2017-10-25T20:02:38.923Z,6.30
2017-10-25T20:05:07.594Z,5.97
2017-10-25T20:07:36.176Z,5.80
2017-10-25T20:10:04.451Z,6.60
2017-10-25T20:12:32.733Z,6.20
2017-10-25T20:15:01.259Z,6.17
2017-10-25T20:17:29.904Z,6.33
2017-10-25T20:19:58.218Z,6.00
2017-10-25T20:22:27.030Z,5.63
2017-10-25T20:24:55.289Z,6.07
2017-10-25T20:27:23.565Z,4.77
2017-10-25T20:29:52.446Z,4.37
2017-10-25T20:32:20.813Z,4.40
2017-10-25T20:34:49.138Z,4.80
2017-10-25T20:37:17.907Z,4.83
2017-10-25T20:39:46.189Z,4.77
2017-10-25T20:42:14.506Z,5.30
2017-10-25T20:44:42.887Z,4.40
2017-10-25T20:47:11.246Z,5.30
2017-10-25T20:49:39.787Z,4.50
2017-10-25T20:52:08.068Z,4.70
2017-10-25T20:54:36.427Z,4.20
2017-10-25T20:57:04.792Z,4.30
2017-10-25T20:59:33.153Z,4.20
2017-10-25T21:02:01.575Z,3.80
2017-10-25T21:04:29.849Z,5.00
2017-10-25T21:06:58.637Z,3.60
2017-10-25T21:09:26.959Z,3.80
2017-10-25T21:11:55.285Z,3.73
2017-10-25T21:14:23.672Z,3.73
2017-10-25T21:16:52.088Z,3.30
2017-10-25T21:19:20.461Z,3.50
2017-10-25T21:21:48.924Z,3.40
2017-10-25T21:24:17.634Z,12.83
2017-10-25T21:26:45.943Z,4.23
2017-10-25T21:29:14.277Z,3.63
2017-10-25T21:31:42.532Z,3.87
2017-10-25T21:34:11.084Z,3.40
2017-10-25T21:36:39.480Z,3.33
2017-10-25T21:39:08.222Z,3.60
2017-10-25T21:41:36.515Z,3.30
2017-10-25T21:44:04.800Z,3.10
2017-10-25T21:46:33.048Z,3.10
2017-10-25T21:49:01.681Z,3.07
2017-10-25T21:51:29.988Z,3.30
2017-10-25T21:53:58.243Z,3.53
2017-10-25T21:56:26.500Z,3.20
2017-10-25T21:58:54.772Z,4.47
2017-10-25T22:01:23.303Z,3.53
2017-10-25T22:03:51.725Z,3.30
2017-10-25T22:06:20.016Z,3.20
2017-10-25T22:08:48.465Z,3.10
2017-10-25T22:11:16.769Z,3.43
2017-10-25T22:13:45.962Z,3.20
2017-10-25T22:16:14.235Z,3.50
2017-10-25T22:18:42.580Z,3.33
2017-10-25T22:21:11.263Z,3.43
2017-10-25T22:23:39.937Z,4.17
2017-10-25T22:26:08.213Z,3.57
2017-10-25T22:28:37.054Z,3.23
2017-10-25T22:31:05.307Z,3.20
2017-10-25T22:33:33.622Z,3.70
2017-10-25T22:36:01.863Z,3.23
2017-10-25T22:38:30.111Z,2.80
2017-10-25T22:40:58.398Z,3.13
2017-10-25T22:43:27.202Z,2.83
2017-10-25T22:45:55.460Z,3.23
2017-10-25T22:48:23.770Z,3.30
2017-10-25T22:50:52.105Z,2.90
2017-10-25T22:53:20.774Z,3.63
2017-10-25T22:55:49.070Z,2.93
2017-10-25T22:58:17.693Z,3.00
2017-10-25T23:00:46.032Z,2.70
2017-10-25T23:03:15.478Z,3.20
2017-10-25T23:05:43.740Z,2.93
2017-10-25T23:08:12.810Z,2.90
2017-10-25T23:10:41.494Z,3.30
2017-10-25T23:13:09.728Z,2.63
2017-10-25T23:15:37.981Z,2.60
2017-10-25T23:18:06.253Z,2.87
2017-10-25T23:20:34.726Z,2.40
2017-10-25T23:23:03.014Z,2.90
2017-10-25T23:25:31.311Z,2.23
2017-10-25T23:27:59.595Z,2.50
2017-10-25T23:30:27.867Z,2.33
2017-10-25T23:32:56.139Z,2.70
2017-10-25T23:35:24.433Z,2.70
2017-10-25T23:37:52.695Z,2.70
2017-10-25T23:40:20.994Z,2.87
2017-10-25T23:42:49.268Z,2.63
2017-10-25T23:45:17.750Z,2.70
2017-10-25T23:47:46.011Z,2.40
2017-10-25T23:50:14.326Z,2.60
2017-10-25T23:52:42.573Z,2.57
2017-10-25T23:55:10.813Z,3.00
2017-10-25T23:57:39.114Z,3.00
